createdAt,value
2017-07-05T00:01:39.147Z,5
2017-07-05T00:11:35.132Z,2
2017-07-05T00:21:37.052Z,3
2017-07-05T00:31:35.152Z,5
2017-07-05T00:41:35.129Z,2
2017-07-05T00:51:35.268Z,2
2017-07-05T01:01:35.489Z,5
2017-07-05T01:11:35.154Z,3
2017-07-05T01:21:35.217Z,3
2017-07-05T01:31:35.155Z,3
2017-07-05T01:41:35.265Z,5
2017-07-05T01:51:35.327Z,3
2017-07-05T02:01:35.301Z,3
2017-07-05T02:11:35.351Z,4
2017-07-05T02:21:35.276Z,3
2017-07-05T02:31:35.291Z,3
2017-07-05T02:41:35.280Z,4
2017-07-05T02:51:35.511Z,4
2017-07-05T03:01:35.531Z,2
2017-07-05T03:11:35.405Z,3
2017-07-05T03:21:35.490Z,4
2017-07-05T03:31:35.588Z,2
2017-07-05T03:41:35.309Z,2
2017-07-05T03:51:35.479Z,3
2017-07-05T04:01:35.399Z,3
2017-07-05T04:11:35.339Z,3
2017-07-05T04:21:35.374Z,2
2017-07-05T04:31:35.354Z,3
2017-07-05T04:41:35.442Z,8
2017-07-05T04:51:35.426Z,4
2017-07-05T05:01:35.503Z,4
2017-07-05T05:11:35.414Z,4
2017-07-05T05:21:35.446Z,4
2017-07-05T05:31:35.590Z,3
2017-07-05T05:41:35.812Z,3
2017-07-05T05:51:41.785Z,3
2017-07-05T06:01:35.494Z,3
2017-07-05T06:11:35.445Z,11
2017-07-05T06:21:36.222Z,3
2017-07-05T06:31:35.439Z,3
2017-07-05T06:41:35.490Z,4
2017-07-05T06:51:35.571Z,6
2017-07-05T07:01:35.625Z,3
2017-07-05T07:11:35.439Z,4
2017-07-05T07:21:35.646Z,4
2017-07-05T07:31:35.742Z,6
2017-07-05T07:41:35.674Z,5
2017-07-05T07:51:35.515Z,8
2017-07-05T08:01:35.447Z,8
2017-07-05T08:11:35.594Z,8
2017-07-05T08:21:35.610Z,9
2017-07-05T08:31:36.395Z,10
2017-07-05T08:41:35.830Z,12
2017-07-05T08:51:35.533Z,13
2017-07-05T09:01:35.615Z,15
2017-07-05T09:11:35.635Z,19
2017-07-05T09:21:35.861Z,18
2017-07-05T09:31:35.521Z,17
2017-07-05T09:41:35.587Z,18
2017-07-05T09:51:35.546Z,16
2017-07-05T10:01:35.495Z,19
2017-07-05T10:11:35.869Z,19
2017-07-05T10:21:35.647Z,15
2017-07-05T10:31:35.543Z,16
2017-07-05T10:41:35.497Z,15
2017-07-05T10:51:35.558Z,16
2017-07-05T11:01:35.520Z,18
2017-07-05T11:11:35.653Z,15
2017-07-05T11:21:35.542Z,16
2017-07-05T11:31:35.570Z,16
2017-07-05T11:41:36.180Z,16
2017-07-05T11:51:35.622Z,23
2017-07-05T12:08:02.949Z,17
2017-07-05T12:11:44.554Z,16
2017-07-05T12:21:35.649Z,13
2017-07-05T12:31:35.869Z,13
2017-07-05T12:41:35.760Z,13
2017-07-05T12:51:35.638Z,14
2017-07-05T13:01:35.900Z,14
2017-07-05T13:11:36.784Z,13
2017-07-05T13:21:35.864Z,12
2017-07-05T13:31:35.829Z,11
2017-07-05T13:41:48.888Z,13
2017-07-05T13:51:38.837Z,13
2017-07-05T14:01:35.718Z,11
2017-07-05T14:11:36.642Z,13
2017-07-05T14:21:35.789Z,12
2017-07-05T14:31:36.449Z,12
2017-07-05T14:41:36.087Z,11
2017-07-05T14:51:35.747Z,12
2017-07-05T15:01:35.790Z,11
2017-07-05T15:22:23.479Z,11
2017-07-05T15:23:04.289Z,10
2017-07-05T15:33:05.674Z,9
2017-07-05T15:43:04.146Z,11
2017-07-05T15:53:04.227Z,13
2017-07-05T16:03:04.208Z,12
2017-07-05T16:13:04.263Z,12
2017-07-05T16:23:04.239Z,12
2017-07-05T16:33:04.309Z,13
2017-07-05T16:43:04.736Z,10
2017-07-05T16:53:04.186Z,12
2017-07-05T17:03:04.302Z,12
2017-07-05T17:13:04.381Z,11
2017-07-05T17:23:04.443Z,11
2017-07-05T17:33:04.318Z,10
2017-07-05T17:43:04.218Z,10
2017-07-05T17:53:04.249Z,11
2017-07-05T18:03:04.378Z,10
2017-07-05T18:13:04.328Z,10
2017-07-05T18:23:04.213Z,9
2017-07-05T18:33:04.275Z,10
2017-07-05T18:43:04.352Z,11
2017-07-05T18:53:04.307Z,11
2017-07-05T19:03:04.335Z,9
2017-07-05T19:13:04.204Z,9
2017-07-05T19:23:04.222Z,8
2017-07-05T19:33:04.275Z,11
2017-07-05T19:43:05.063Z,8
2017-07-05T19:53:04.272Z,7
2017-07-05T20:03:04.349Z,7
2017-07-05T20:13:17.092Z,9
2017-07-05T20:23:13.369Z,10
2017-07-05T20:33:04.403Z,9
2017-07-05T20:43:05.149Z,9
2017-07-05T20:53:05.936Z,8
2017-07-05T21:03:04.360Z,8
2017-07-05T21:13:05.047Z,7
2017-07-05T21:23:05.296Z,9
2017-07-05T21:33:04.667Z,10
2017-07-05T21:43:04.525Z,10
2017-07-05T21:53:04.764Z,8
2017-07-05T22:03:04.389Z,9
2017-07-05T22:13:04.774Z,9
2017-07-05T22:23:05.842Z,8
2017-07-05T22:33:04.449Z,9
2017-07-05T22:43:04.314Z,8
2017-07-05T22:53:04.306Z,9
2017-07-05T23:03:04.272Z,9
2017-07-05T23:13:04.296Z,9
2017-07-05T23:23:04.340Z,9
2017-07-05T23:33:04.668Z,10
2017-07-05T23:43:04.416Z,9
2017-07-05T23:53:04.909Z,10
